createdAt,value
2018-12-25T00:01:29.166Z,96983.92
2018-12-25T00:03:59.282Z,96979.81
2018-12-25T00:06:29.006Z,96981.55
2018-12-25T00:08:58.742Z,96986.11
2018-12-25T00:11:28.457Z,96988.77
2018-12-25T00:13:58.256Z,96994.05
2018-12-25T00:16:28.013Z,96993.80
2018-12-25T00:19:05.943Z,97007.42
2018-12-25T00:21:29.195Z,97003.51
2018-12-25T00:23:58.905Z,97006.19
2018-12-25T00:26:28.668Z,97008.45
2018-12-25T00:28:58.731Z,97006.98
2018-12-25T00:31:28.447Z,97011.58
2018-12-25T00:33:58.483Z,97019.73
2018-12-25T00:36:28.212Z,97019.75
2018-12-25T00:38:58.317Z,97021.06
2018-12-25T00:41:28.113Z,97019.48
2018-12-25T00:43:57.822Z,97021.98
2018-12-25T00:46:27.960Z,97021.56
2018-12-25T00:48:57.731Z,97024.91
2018-12-25T00:51:27.473Z,97030.30
2018-12-25T00:53:57.251Z,97035.55
2018-12-25T00:56:26.975Z,97032.91
2018-12-25T00:58:56.654Z,97038.80
2018-12-25T01:01:26.460Z,97033.80
2018-12-25T01:03:56.236Z,97027.72
2018-12-25T01:06:25.929Z,97028.56
2018-12-25T01:08:55.708Z,97035.73
2018-12-25T01:11:25.474Z,97028.63
2018-12-25T01:13:55.242Z,97033.63
2018-12-25T01:16:25.496Z,97038.13
2018-12-25T01:18:55.337Z,97030.54
2018-12-25T01:21:25.471Z,97034.35
2018-12-25T01:23:55.331Z,97031.33
2018-12-25T01:26:25.359Z,97028.57
2018-12-25T01:28:55.190Z,97028.72
2018-12-25T01:31:25.302Z,97030.80
2018-12-25T01:33:55.002Z,97021.48
2018-12-25T01:36:24.775Z,97015.20
2018-12-25T01:38:54.561Z,97009.78
2018-12-25T01:41:24.407Z,97009.61
2018-12-25T01:43:54.108Z,97002.69
2018-12-25T01:46:24.256Z,96992.11
2018-12-25T01:48:54.373Z,96986.42
2018-12-25T01:51:24.156Z,96983.75
2018-12-25T01:53:53.857Z,96973.99
2018-12-25T01:56:23.637Z,96968.89
2018-12-25T01:58:54.117Z,96964.06
2018-12-25T02:01:23.827Z,96955.77
2018-12-25T02:03:53.609Z,96954.45
2018-12-25T02:06:23.334Z,96949.28
2018-12-25T02:08:53.091Z,96955.36
2018-12-25T02:13:54.788Z,96950.40
2018-12-25T02:16:24.538Z,96951.91
2018-12-25T02:18:54.232Z,96954.00
2018-12-25T02:21:23.962Z,96949.39
2018-12-25T02:23:53.741Z,96949.12
2018-12-25T02:26:23.502Z,96955.55
2018-12-25T02:28:53.232Z,96955.13
2018-12-25T02:31:23.343Z,96969.23
2018-12-25T02:33:53.117Z,96980.75
2018-12-25T02:36:22.814Z,96987.12
2018-12-25T02:38:52.586Z,96991.06
2018-12-25T02:41:22.297Z,97000.42
2018-12-25T02:43:52.004Z,97006.37
2018-12-25T02:46:22.132Z,96998.31
2018-12-25T02:48:51.885Z,97003.52
2018-12-25T02:51:21.939Z,97001.09
2018-12-25T02:53:51.965Z,96996.03
2018-12-25T02:56:21.680Z,96991.38
2018-12-25T02:58:51.390Z,96984.09
2018-12-25T03:01:21.161Z,96985.16
2018-12-25T03:03:50.891Z,96980.01
2018-12-25T03:06:20.671Z,96979.56
2018-12-25T03:08:50.459Z,96980.65
2018-12-25T03:11:20.177Z,96985.30
2018-12-25T03:13:49.917Z,96981.32
2018-12-25T03:16:19.631Z,96986.30
2018-12-25T03:18:49.449Z,96987.09
2018-12-25T03:21:19.181Z,96981.64
2018-12-25T03:23:48.973Z,96975.47
2018-12-25T03:26:18.816Z,96981.05
2018-12-25T03:28:48.915Z,96988.95
2018-12-25T03:31:18.764Z,96984.14
2018-12-25T03:33:49.092Z,96987.20
2018-12-25T03:36:19.284Z,96987.40
2018-12-25T03:38:49.082Z,96992.19
2018-12-25T03:41:19.070Z,96986.20
2018-12-25T03:43:48.931Z,96990.30
2018-12-25T03:46:19.189Z,96993.94
2018-12-25T03:48:48.985Z,96987.42
2018-12-25T03:51:18.842Z,96990.72
2018-12-25T03:53:48.975Z,96992.23
2018-12-25T03:56:18.878Z,96996.02
2018-12-25T03:58:49.127Z,96990.73
2018-12-25T04:01:18.896Z,96989.95
2018-12-25T04:03:48.881Z,96997.17
2018-12-25T04:09:27.681Z,96991.70
2018-12-25T04:11:57.510Z,96989.90
2018-12-25T04:14:27.405Z,96987.53
2018-12-25T04:16:57.184Z,96986.91
2018-12-25T04:19:26.991Z,96993.28
2018-12-25T04:21:56.871Z,96995.91
2018-12-25T04:24:26.616Z,97003.80
2018-12-25T04:26:56.453Z,96997.19
2018-12-25T04:29:26.973Z,96996.20
2018-12-25T04:31:56.835Z,97004.38
2018-12-25T04:34:26.580Z,97004.90
2018-12-25T04:37:15.365Z,97009.12
2018-12-25T04:39:45.124Z,97006.67
2018-12-25T04:42:14.871Z,97006.16
2018-12-25T04:44:44.667Z,97008.96
2018-12-25T04:47:14.463Z,97010.00
2018-12-25T04:49:44.310Z,97016.18
2018-12-25T04:52:14.162Z,97012.48
2018-12-25T04:54:44.005Z,97019.55
2018-12-25T04:57:14.288Z,97010.22
2018-12-25T04:59:44.085Z,97005.87
2018-12-25T05:02:13.879Z,96997.56
2018-12-25T05:04:43.664Z,97002.94
2018-12-25T05:07:13.473Z,97000.02
2018-12-25T05:09:43.349Z,97005.63
2018-12-25T05:12:13.480Z,97003.42
2018-12-25T05:14:43.644Z,97006.98
2018-12-25T05:17:13.470Z,97015.98
2018-12-25T05:19:43.392Z,97016.01
2018-12-25T05:22:13.225Z,97012.73
2018-12-25T05:24:43.145Z,97019.45
2018-12-25T05:27:13.058Z,97009.66
2018-12-25T05:29:42.899Z,97011.06
2018-12-25T05:32:13.093Z,97009.68
2018-12-25T05:34:42.871Z,97005.27
2018-12-25T05:37:12.695Z,97007.03
2018-12-25T05:39:42.855Z,97018.34
2018-12-25T05:42:12.742Z,97018.03
2018-12-25T05:44:43.516Z,97014.19
2018-12-25T05:47:14.545Z,97018.13
2018-12-25T05:49:44.389Z,97027.48
2018-12-25T05:52:14.217Z,97034.20
2018-12-25T05:54:44.113Z,97029.23
2018-12-25T05:57:14.004Z,97028.08
2018-12-25T05:59:44.609Z,97028.19
2018-12-25T06:02:14.430Z,97026.72
2018-12-25T06:04:44.330Z,97036.16
2018-12-25T06:07:14.665Z,97041.27
2018-12-25T06:09:45.390Z,97041.09
2018-12-25T06:12:15.198Z,97036.28
2018-12-25T06:14:44.992Z,97031.61
2018-12-25T06:17:14.862Z,97033.64
2018-12-25T06:19:44.655Z,97025.08
2018-12-25T06:22:14.516Z,97031.45
2018-12-25T06:24:44.335Z,97026.81
2018-12-25T06:27:14.163Z,97026.25
2018-12-25T06:29:44.417Z,97021.22
2018-12-25T06:32:14.665Z,97019.03
2018-12-25T06:34:44.912Z,97008.38
2018-12-25T06:37:14.783Z,97015.84
2018-12-25T06:39:44.649Z,97011.13
2018-12-25T06:42:14.697Z,97012.50
2018-12-25T06:44:44.654Z,97017.95
2018-12-25T06:47:14.552Z,97016.35
2018-12-25T06:49:44.410Z,97021.13
2018-12-25T06:52:14.223Z,97031.21
2018-12-25T06:54:44.020Z,97032.98
2018-12-25T06:57:13.878Z,97024.08
2018-12-25T06:59:43.682Z,97020.72
2018-12-25T07:02:13.488Z,97016.50
2018-12-25T07:04:43.344Z,97010.95
2018-12-25T07:07:13.519Z,97004.54
2018-12-25T07:09:43.455Z,97003.81
2018-12-25T07:12:13.394Z,97010.39
2018-12-25T07:14:43.457Z,97009.74
2018-12-25T07:17:13.290Z,97010.96
2018-12-25T07:19:43.076Z,97011.13
2018-12-25T07:22:13.037Z,97004.34
2018-12-25T07:24:42.906Z,96990.06
2018-12-25T07:27:12.682Z,96987.44
2018-12-25T07:29:42.513Z,96984.05
2018-12-25T07:32:12.363Z,96988.20
2018-12-25T07:34:42.255Z,96986.42
2018-12-25T07:37:12.075Z,96988.74
2018-12-25T07:39:42.181Z,96989.25
2018-12-25T07:42:11.986Z,96993.64
2018-12-25T07:44:41.843Z,96996.76
2018-12-25T07:47:11.732Z,96998.55
2018-12-25T07:49:41.465Z,96999.16
2018-12-25T07:52:30.106Z,96993.09
2018-12-25T07:54:59.907Z,96999.27
2018-12-25T07:57:30.020Z,97000.92
2018-12-25T08:02:35.211Z,96992.67
2018-12-25T08:05:05.026Z,96990.13
2018-12-25T08:07:34.790Z,96995.08
2018-12-25T08:10:04.647Z,97002.02
2018-12-25T08:12:34.690Z,97010.83
2018-12-25T08:15:04.450Z,97011.55
2018-12-25T08:17:34.291Z,97005.63
2018-12-25T08:20:04.024Z,97012.87
2018-12-25T08:22:33.863Z,97012.38
2018-12-25T08:25:03.649Z,97018.26
2018-12-25T08:27:33.383Z,97014.44
2018-12-25T08:30:03.172Z,97011.48
2018-12-25T08:32:33.203Z,97019.33
2018-12-25T08:35:03.050Z,97017.69
2018-12-25T08:37:33.154Z,97022.52
2018-12-25T08:40:03.030Z,97021.40
2018-12-25T08:42:32.827Z,97029.00
2018-12-25T08:45:02.717Z,97033.70
2018-12-25T08:47:33.282Z,97042.09
2018-12-25T08:50:03.283Z,97042.04
2018-12-25T08:52:34.114Z,97045.16
2018-12-25T08:55:03.945Z,97045.74
2018-12-25T08:57:34.112Z,97048.74
2018-12-25T09:00:03.971Z,97046.11
2018-12-25T09:02:34.130Z,97045.84
2018-12-25T09:05:03.968Z,97048.25
2018-12-25T09:07:33.819Z,97055.12
2018-12-25T09:10:03.689Z,97055.12
2018-12-25T09:12:33.490Z,97057.66
2018-12-25T09:15:03.452Z,97052.42
2018-12-25T09:17:52.109Z,97063.75
2018-12-25T09:20:21.935Z,97061.98
2018-12-25T09:22:51.905Z,97052.97
2018-12-25T09:25:21.724Z,97053.68
2018-12-25T09:27:52.362Z,97051.72
2018-12-25T09:30:22.265Z,97054.07
2018-12-25T09:32:52.371Z,97056.72
2018-12-25T09:35:22.535Z,97059.88
2018-12-25T09:37:52.372Z,97044.91
2018-12-25T09:40:22.128Z,97045.45
2018-12-25T09:42:52.334Z,97050.89
2018-12-25T09:45:22.159Z,97049.06
2018-12-25T09:47:52.167Z,97044.66
2018-12-25T09:50:21.903Z,97043.66
2018-12-25T09:52:51.622Z,97042.06
2018-12-25T09:55:21.421Z,97041.09
2018-12-25T09:57:51.201Z,97050.92
2018-12-25T10:00:20.949Z,97048.50
2018-12-25T10:02:50.762Z,97050.16
2018-12-25T10:05:20.528Z,97053.94
2018-12-25T10:07:50.737Z,97058.54
2018-12-25T10:10:20.585Z,97057.58
2018-12-25T10:12:50.355Z,97063.00
2018-12-25T10:15:20.275Z,97059.00
2018-12-25T10:17:51.062Z,97045.38
2018-12-25T10:20:20.958Z,97049.92
2018-12-25T10:22:51.178Z,97060.85
2018-12-25T10:25:20.948Z,97053.13
2018-12-25T10:27:50.871Z,97070.02
2018-12-25T10:30:21.128Z,97069.45
2018-12-25T10:32:50.940Z,97062.80
2018-12-25T10:35:20.774Z,97053.32
2018-12-25T10:37:50.622Z,97046.98
2018-12-25T10:40:20.423Z,97034.38
2018-12-25T10:42:50.222Z,97028.56
2018-12-25T10:45:20.263Z,97023.19
2018-12-25T10:47:50.545Z,97020.81
2018-12-25T10:50:20.988Z,97034.48
2018-12-25T10:52:51.061Z,97025.52
2018-12-25T10:55:21.194Z,97028.69
2018-12-25T10:57:51.126Z,97021.27
2018-12-25T11:00:20.931Z,97017.54
2018-12-25T11:02:51.360Z,96995.88
2018-12-25T11:05:21.576Z,97003.40
2018-12-25T11:07:51.703Z,96990.05
2018-12-25T11:10:22.330Z,96974.69
2018-12-25T11:12:52.595Z,96968.66
2018-12-25T11:15:22.790Z,96976.36
2018-12-25T11:17:52.546Z,96972.88
2018-12-25T11:20:22.987Z,96988.11
2018-12-25T11:22:53.032Z,96987.20
2018-12-25T11:25:22.973Z,96991.70
2018-12-25T11:27:52.957Z,96990.37
2018-12-25T11:30:22.908Z,96983.85
2018-12-25T11:32:52.938Z,96989.19
2018-12-25T11:35:23.184Z,96982.41
2018-12-25T11:37:53.172Z,96981.02
2018-12-25T11:40:23.751Z,96980.96
2018-12-25T11:42:53.958Z,96975.84
2018-12-25T11:45:24.299Z,96979.08
2018-12-25T11:47:54.596Z,96971.12
2018-12-25T11:50:24.868Z,96976.47
2018-12-25T11:53:13.674Z,96979.41
2018-12-25T11:55:43.924Z,96984.70
2018-12-25T11:58:13.777Z,96989.19
2018-12-25T12:00:43.994Z,96997.90
2018-12-25T12:03:13.897Z,96999.17
2018-12-25T12:05:44.149Z,97000.78
2018-12-25T12:08:13.951Z,96996.06
2018-12-25T12:10:43.918Z,96992.58
2018-12-25T12:13:13.766Z,97002.73
2018-12-25T12:15:43.562Z,97019.37
2018-12-25T12:18:13.319Z,97017.60
2018-12-25T12:20:43.766Z,97027.55
2018-12-25T12:23:32.678Z,97025.20
2018-12-25T12:26:02.515Z,97027.98
2018-12-25T12:28:32.491Z,97036.59
2018-12-25T12:31:02.691Z,97030.13
2018-12-25T12:33:32.506Z,97027.23
2018-12-25T12:36:02.831Z,97030.70
2018-12-25T12:38:33.129Z,97042.66
2018-12-25T12:41:03.180Z,97057.81
2018-12-25T12:43:33.520Z,97060.92
2018-12-25T12:46:03.440Z,97059.97
2018-12-25T12:48:33.422Z,97066.81
2018-12-25T12:51:03.243Z,97074.44
2018-12-25T12:53:33.580Z,97072.91
2018-12-25T12:56:03.753Z,97077.30
2018-12-25T12:58:41.284Z,97080.10
2018-12-25T13:01:11.150Z,97084.94
2018-12-25T13:03:41.119Z,97083.05
2018-12-25T13:06:10.952Z,97076.14
2018-12-25T13:08:40.851Z,97080.50
2018-12-25T13:11:10.844Z,97081.34
2018-12-25T13:13:40.786Z,97079.61
2018-12-25T13:16:10.890Z,97078.95
2018-12-25T13:18:40.835Z,97087.55
2018-12-25T13:21:11.550Z,97087.95
2018-12-25T13:23:41.808Z,97075.43
2018-12-25T13:26:12.081Z,97082.89
2018-12-25T13:28:42.155Z,97101.81
2018-12-25T13:31:11.986Z,97105.11
2018-12-25T13:33:42.785Z,97099.17
2018-12-25T13:36:12.686Z,97098.56
2018-12-25T13:38:43.316Z,97103.60
2018-12-25T13:41:13.136Z,97106.23
2018-12-25T13:43:43.102Z,97103.84
2018-12-25T13:46:13.103Z,97103.72
2018-12-25T13:48:45.654Z,97101.27
2018-12-25T13:51:15.495Z,97102.09
2018-12-25T13:53:45.310Z,97098.98
2018-12-25T13:56:15.732Z,97103.75
2018-12-25T13:58:45.525Z,97095.08
2018-12-25T14:01:15.499Z,97087.52
2018-12-25T14:03:45.473Z,97079.89
2018-12-25T14:06:15.834Z,97075.67
2018-12-25T14:08:46.190Z,97074.23
2018-12-25T14:14:05.613Z,97075.99
2018-12-25T14:16:35.901Z,97083.84
2018-12-25T14:19:06.078Z,97091.11
2018-12-25T14:21:37.427Z,97091.11
2018-12-25T14:24:07.743Z,97088.77
2018-12-25T14:26:37.598Z,97091.28
2018-12-25T14:29:07.398Z,97100.11
2018-12-25T14:31:37.335Z,97094.96
2018-12-25T14:34:07.102Z,97096.47
2018-12-25T14:36:37.371Z,97084.02
2018-12-25T14:39:08.941Z,97087.91
2018-12-25T14:41:38.994Z,97080.22
2018-12-25T14:44:08.900Z,97084.80
2018-12-25T14:46:38.841Z,97083.20
2018-12-25T14:49:09.183Z,97078.45
2018-12-25T14:54:27.915Z,97091.02
2018-12-25T14:56:58.563Z,97098.59
2018-12-25T14:59:28.439Z,97095.72
2018-12-25T15:01:58.325Z,97102.51
2018-12-25T15:04:28.961Z,97102.61
2018-12-25T15:06:59.249Z,97108.33
2018-12-25T15:09:29.118Z,97106.73
2018-12-25T15:11:58.989Z,97107.48
2018-12-25T15:14:29.029Z,97113.03
2018-12-25T15:16:58.941Z,97115.66
2018-12-25T15:19:29.596Z,97122.02
2018-12-25T15:21:59.376Z,97118.50
2018-12-25T15:24:29.696Z,97116.47
2018-12-25T15:26:59.622Z,97120.18
2018-12-25T15:29:29.412Z,97130.64
2018-12-25T15:31:59.401Z,97133.16
2018-12-25T15:34:30.038Z,97132.69
2018-12-25T15:36:59.908Z,97136.30
2018-12-25T15:39:29.832Z,97136.21
2018-12-25T15:42:00.088Z,97144.20
2018-12-25T15:44:30.712Z,97142.01
2018-12-25T15:47:00.570Z,97144.19
2018-12-25T15:49:31.163Z,97149.41
2018-12-25T15:52:01.152Z,97153.41
2018-12-25T15:54:31.489Z,97150.03
2018-12-25T15:57:02.965Z,97155.11
2018-12-25T15:59:33.424Z,97150.17
2018-12-25T16:02:03.244Z,97151.91
2018-12-25T16:04:33.414Z,97152.14
2018-12-25T16:07:03.250Z,97157.22
2018-12-25T16:09:33.464Z,97157.32
2018-12-25T16:12:03.513Z,97155.10
2018-12-25T16:14:33.849Z,97156.72
2018-12-25T16:17:04.102Z,97161.14
2018-12-25T16:19:34.010Z,97155.34
2018-12-25T16:22:03.917Z,97156.64
2018-12-25T16:24:33.563Z,97150.27
2018-12-25T16:27:03.651Z,97151.17
2018-12-25T16:32:23.329Z,97136.14
2018-12-25T16:34:53.125Z,97138.37
2018-12-25T16:37:23.368Z,97136.78
2018-12-25T16:39:53.924Z,97136.56
2018-12-25T16:42:23.732Z,97152.16
2018-12-25T16:44:53.782Z,97148.69
2018-12-25T16:47:24.181Z,97150.22
2018-12-25T16:49:54.054Z,97149.36
2018-12-25T16:52:23.871Z,97148.83
2018-12-25T16:54:53.716Z,97145.98
2018-12-25T16:57:23.528Z,97149.94
2018-12-25T16:59:53.168Z,97154.36
2018-12-25T17:02:22.823Z,97155.83
2018-12-25T17:04:52.440Z,97149.31
2018-12-25T17:07:22.054Z,97154.81
2018-12-25T17:09:51.699Z,97141.03
2018-12-25T17:12:21.644Z,97150.83
2018-12-25T17:14:51.298Z,97142.13
2018-12-25T17:17:20.954Z,97140.78
2018-12-25T17:19:50.587Z,97141.75
2018-12-25T17:22:20.212Z,97135.11
2018-12-25T17:24:49.860Z,97134.03
2018-12-25T17:27:19.484Z,97131.35
2018-12-25T17:29:49.145Z,97125.41
2018-12-25T17:32:19.521Z,97114.25
2018-12-25T17:34:49.159Z,97116.52
2018-12-25T17:37:38.090Z,97114.81
2018-12-25T17:40:08.566Z,97108.71
2018-12-25T17:42:38.491Z,97107.97
2018-12-25T17:45:08.621Z,97114.59
2018-12-25T17:47:38.775Z,97111.17
2018-12-25T17:50:08.719Z,97112.60
2018-12-25T17:52:57.518Z,97109.55
2018-12-25T17:55:27.427Z,97116.77
2018-12-25T17:57:57.558Z,97108.31
2018-12-25T18:00:28.207Z,97115.66
2018-12-25T18:02:58.050Z,97118.44
2018-12-25T18:05:28.637Z,97115.41
2018-12-25T18:07:58.610Z,97120.53
2018-12-25T18:10:28.506Z,97110.16
2018-12-25T18:12:58.652Z,97108.64
2018-12-25T18:15:28.490Z,97101.05
2018-12-25T18:17:58.587Z,97106.38
2018-12-25T18:20:28.430Z,97100.47
2018-12-25T18:22:58.319Z,97106.39
2018-12-25T18:25:28.173Z,97108.16
2018-12-25T18:27:58.068Z,97110.67
2018-12-25T18:30:30.201Z,97105.48
2018-12-25T18:33:00.661Z,97109.98
2018-12-25T18:35:30.872Z,97099.28
2018-12-25T18:38:01.457Z,97097.53
2018-12-25T18:40:31.176Z,97089.39
2018-12-25T18:43:01.535Z,97081.92
2018-12-25T18:45:31.598Z,97078.61
2018-12-25T18:48:01.603Z,97070.84
2018-12-25T18:50:33.660Z,97070.80
2018-12-25T18:53:03.648Z,97079.03
2018-12-25T18:55:33.901Z,97081.76
2018-12-25T18:58:03.715Z,97083.80
2018-12-25T19:00:33.985Z,97074.92
2018-12-25T19:03:04.203Z,97075.34
2018-12-25T19:05:34.096Z,97068.28
2018-12-25T19:08:04.159Z,97069.19
2018-12-25T19:10:34.085Z,97062.95
2018-12-25T19:13:04.063Z,97065.56
2018-12-25T19:16:13.555Z,97067.70
2018-12-25T19:18:43.328Z,97066.73
2018-12-25T19:21:13.216Z,97065.55
2018-12-25T19:23:51.990Z,97068.28
2018-12-25T19:26:22.261Z,97070.32
2018-12-25T19:28:52.128Z,97070.15
2018-12-25T19:31:22.084Z,97057.59
2018-12-25T19:33:52.227Z,97063.72
2018-12-25T19:36:22.073Z,97049.30
2018-12-25T19:38:52.096Z,97047.73
2018-12-25T19:41:22.030Z,97044.97
2018-12-25T19:43:51.885Z,97038.88
2018-12-25T19:46:22.463Z,97035.05
2018-12-25T19:48:53.450Z,97033.31
2018-12-25T19:51:23.379Z,97034.09
2018-12-25T19:53:53.388Z,97033.08
2018-12-25T19:56:23.160Z,97038.04
2018-12-25T19:58:53.527Z,97032.49
2018-12-25T20:01:26.114Z,97021.80
2018-12-25T20:04:20.894Z,97019.24
2018-12-25T20:07:28.616Z,97019.06
2018-12-25T20:10:24.235Z,97021.86
2018-12-25T20:13:32.202Z,97010.84
2018-12-25T20:16:40.278Z,97015.31
2018-12-25T20:19:34.548Z,97019.58
2018-12-25T20:22:42.107Z,97018.77
2018-12-25T20:25:49.708Z,97019.48
2018-12-25T20:28:57.650Z,97027.92
2018-12-25T20:32:05.759Z,97026.84
2018-12-25T20:35:13.912Z,97026.13
2018-12-25T20:38:21.690Z,97030.78
2018-12-25T20:41:29.510Z,97032.42
2018-12-25T20:44:37.261Z,97033.04
2018-12-25T20:47:46.532Z,97023.86
2018-12-25T20:50:54.448Z,97032.67
2018-12-25T20:54:10.473Z,97038.98
2018-12-25T20:57:17.999Z,97054.27
2018-12-25T21:00:25.750Z,97058.71
2018-12-25T21:03:34.064Z,97057.11
2018-12-25T21:06:42.021Z,97059.89
2018-12-25T21:09:49.530Z,97057.64
2018-12-25T21:12:57.232Z,97056.68
2018-12-25T21:16:04.711Z,97046.05
2018-12-25T21:19:24.757Z,97045.45
2018-12-25T21:22:32.569Z,97043.84
2018-12-25T21:25:40.056Z,97043.73
2018-12-25T21:28:07.771Z,97035.42
2018-12-25T21:33:32.481Z,97018.42
2018-12-25T21:36:02.178Z,97015.06
2018-12-25T21:38:31.802Z,97013.59
2018-12-25T21:41:40.686Z,97012.80
2018-12-25T21:44:10.302Z,97015.64
2018-12-25T21:46:39.928Z,97010.42
2018-12-25T21:49:48.757Z,97011.89
2018-12-25T21:52:37.555Z,97008.09
2018-12-25T21:58:55.657Z,97006.53
2018-12-25T22:01:25.396Z,97000.55
2018-12-25T22:04:14.796Z,97001.88
2018-12-25T22:06:44.420Z,97008.83
2018-12-25T22:09:14.072Z,97001.78
2018-12-25T22:11:45.359Z,97002.02
2018-12-25T22:14:15.033Z,97003.72
2018-12-25T22:16:44.681Z,97002.91
2018-12-25T22:19:14.422Z,96999.13
2018-12-25T22:21:44.065Z,96995.58
2018-12-25T22:24:13.813Z,96998.86
2018-12-25T22:26:43.426Z,96991.11
2018-12-25T22:29:13.065Z,96991.85
2018-12-25T22:31:42.676Z,96986.68
2018-12-25T22:34:12.636Z,96980.64
2018-12-25T22:36:42.324Z,96978.08
2018-12-25T22:39:11.950Z,96988.88
2018-12-25T22:41:41.588Z,96987.56
2018-12-25T22:44:11.206Z,96980.38
2018-12-25T22:46:41.184Z,96974.31
2018-12-25T22:49:10.951Z,96972.84
2018-12-25T22:51:40.906Z,96979.62
2018-12-25T22:54:10.768Z,96984.55
2018-12-25T22:56:40.728Z,96983.43
2018-12-25T22:59:11.136Z,96987.87
2018-12-25T23:01:40.979Z,96982.54
2018-12-25T23:04:10.830Z,96981.05
2018-12-25T23:06:41.088Z,96977.44
2018-12-25T23:09:11.049Z,96986.56
2018-12-25T23:11:40.835Z,96983.78
2018-12-25T23:14:11.079Z,96977.42
2018-12-25T23:16:41.150Z,96984.40
2018-12-25T23:19:11.507Z,96977.63
2018-12-25T23:21:41.284Z,96981.46
2018-12-25T23:24:11.169Z,96979.41
2018-12-25T23:26:59.876Z,96978.72
2018-12-25T23:29:29.667Z,96976.90
2018-12-25T23:31:59.507Z,96974.27
2018-12-25T23:34:29.379Z,96973.80
2018-12-25T23:36:59.235Z,96984.12
2018-12-25T23:39:29.053Z,96979.94
2018-12-25T23:41:59.511Z,96981.05
2018-12-25T23:44:31.076Z,96971.06
2018-12-25T23:47:00.891Z,96964.59
2018-12-25T23:49:31.214Z,96974.97
2018-12-25T23:52:01.033Z,96974.00
2018-12-25T23:54:30.875Z,96973.57
2018-12-25T23:57:01.059Z,96973.41
2018-12-25T23:59:31.260Z,96970.95
